sensor_id;sensor_type;location;lat;lon;timestamp;temperature;humidity
9790;DHT22;4934;50.852;8.098;2024-02-28T00:02:22;-1.30;99.90
9790;DHT22;4934;50.852;8.098;2024-02-28T00:04:47;-1.30;99.90
9790;DHT22;4934;50.852;8.098;2024-02-28T00:07:13;-1.30;99.90
9790;DHT22;4934;50.852;8.098;2024-02-28T00:09:38;-1.40;99.90
9790;DHT22;4934;50.852;8.098;2024-02-28T00:12:04;-1.40;99.90
9790;DHT22;4934;50.852;8.098;2024-02-28T00:14:30;-1.40;99.90
9790;DHT22;4934;50.852;8.098;2024-02-28T00:16:55;-1.50;99.90
9790;DHT22;4934;50.852;8.098;2024-02-28T00:19:21;-1.50;99.90
9790;DHT22;4934;50.852;8.098;2024-02-28T00:21:47;-1.60;99.90
9790;DHT22;4934;50.852;8.098;2024-02-28T00:24:13;-1.60;99.90
9790;DHT22;4934;50.852;8.098;2024-02-28T00:26:42;-1.50;1.00
9790;DHT22;4934;50.852;8.098;2024-02-28T00:29:09;-1.60;99.90
9790;DHT22;4934;50.852;8.098;2024-02-28T00:31:35;-1.60;99.90
9790;DHT22;4934;50.852;8.098;2024-02-28T00:34:00;-1.60;99.90
9790;DHT22;4934;50.852;8.098;2024-02-28T00:36:26;-1.60;1.00
9790;DHT22;4934;50.852;8.098;2024-02-28T00:38:52;-1.60;1.00
9790;DHT22;4934;50.852;8.098;2024-02-28T00:41:17;-1.70;1.00
9790;DHT22;4934;50.852;8.098;2024-02-28T00:43:43;-1.60;54.80
9790;DHT22;4934;50.852;8.098;2024-02-28T00:46:09;-1.40;1.00
9790;DHT22;4934;50.852;8.098;2024-02-28T00:48:40;-1.40;1.00
9790;DHT22;4934;50.852;8.098;2024-02-28T00:51:06;-1.30;1.00
9790;DHT22;4934;50.852;8.098;2024-02-28T00:53:33;-1.20;1.00
9790;DHT22;4934;50.852;8.098;2024-02-28T00:55:59;-1.20;1.00
9790;DHT22;4934;50.852;8.098;2024-02-28T00:58:24;-1.10;1.00
9790;DHT22;4934;50.852;8.098;2024-02-28T01:00:53;-1.10;93.10
9790;DHT22;4934;50.852;8.098;2024-02-28T01:03:18;-1.10;99.90
9790;DHT22;4934;50.852;8.098;2024-02-28T01:05:44;-1.10;99.90
9790;DHT22;4934;50.852;8.098;2024-02-28T01:08:10;-1.00;99.90
9790;DHT22;4934;50.852;8.098;2024-02-28T01:10:35;-1.00;99.90
9790;DHT22;4934;50.852;8.098;2024-02-28T01:13:02;-1.00;99.90
9790;DHT22;4934;50.852;8.098;2024-02-28T01:15:27;-0.90;99.90
9790;DHT22;4934;50.852;8.098;2024-02-28T01:17:53;-0.80;99.90
9790;DHT22;4934;50.852;8.098;2024-02-28T01:20:19;-0.80;84.80
9790;DHT22;4934;50.852;8.098;2024-02-28T01:22:44;-0.80;99.90
9790;DHT22;4934;50.852;8.098;2024-02-28T01:25:10;-0.80;99.90
9790;DHT22;4934;50.852;8.098;2024-02-28T01:27:35;-0.80;99.90
9790;DHT22;4934;50.852;8.098;2024-02-28T01:30:01;-0.70;99.90
9790;DHT22;4934;50.852;8.098;2024-02-28T01:32:28;-0.70;99.90
9790;DHT22;4934;50.852;8.098;2024-02-28T01:34:54;-0.70;99.90
9790;DHT22;4934;50.852;8.098;2024-02-28T01:37:20;-0.50;99.90
9790;DHT22;4934;50.852;8.098;2024-02-28T01:39:45;-0.50;99.90
9790;DHT22;4934;50.852;8.098;2024-02-28T01:42:11;-0.50;99.90
9790;DHT22;4934;50.852;8.098;2024-02-28T01:44:43;-0.50;99.90
9790;DHT22;4934;50.852;8.098;2024-02-28T01:47:09;-0.50;99.90
9790;DHT22;4934;50.852;8.098;2024-02-28T01:49:38;-0.40;99.90
9790;DHT22;4934;50.852;8.098;2024-02-28T01:52:04;-0.40;99.90
9790;DHT22;4934;50.852;8.098;2024-02-28T01:54:31;-0.30;99.90
9790;DHT22;4934;50.852;8.098;2024-02-28T01:56:57;-0.30;99.90
9790;DHT22;4934;50.852;8.098;2024-02-28T01:59:24;-0.30;99.90
9790;DHT22;4934;50.852;8.098;2024-02-28T02:01:51;-0.20;99.90
9790;DHT22;4934;50.852;8.098;2024-02-28T02:04:17;-0.20;99.90
9790;DHT22;4934;50.852;8.098;2024-02-28T02:06:44;-0.20;99.90
9790;DHT22;4934;50.852;8.098;2024-02-28T02:09:10;-0.20;1.00
9790;DHT22;4934;50.852;8.098;2024-02-28T02:11:36;-0.10;1.00
9790;DHT22;4934;50.852;8.098;2024-02-28T02:14:03;-0.10;1.00
9790;DHT22;4934;50.852;8.098;2024-02-28T02:16:28;-0.10;1.00
9790;DHT22;4934;50.852;8.098;2024-02-28T02:18:55;-0.10;1.00
9790;DHT22;4934;50.852;8.098;2024-02-28T02:21:23;-0.10;1.00
9790;DHT22;4934;50.852;8.098;2024-02-28T02:23:52;0.00;1.00
9790;DHT22;4934;50.852;8.098;2024-02-28T02:26:18;0.00;1.00
9790;DHT22;4934;50.852;8.098;2024-02-28T02:28:43;0.00;1.00
9790;DHT22;4934;50.852;8.098;2024-02-28T02:31:11;0.10;1.00
9790;DHT22;4934;50.852;8.098;2024-02-28T02:33:37;0.10;1.00
9790;DHT22;4934;50.852;8.098;2024-02-28T02:36:03;0.10;1.00
9790;DHT22;4934;50.852;8.098;2024-02-28T02:38:28;0.10;1.00
9790;DHT22;4934;50.852;8.098;2024-02-28T02:40:54;0.10;1.00
9790;DHT22;4934;50.852;8.098;2024-02-28T02:43:20;0.10;1.00
9790;DHT22;4934;50.852;8.098;2024-02-28T02:45:45;0.20;1.00
9790;DHT22;4934;50.852;8.098;2024-02-28T02:48:11;0.20;1.00
9790;DHT22;4934;50.852;8.098;2024-02-28T02:50:37;0.10;1.00
9790;DHT22;4934;50.852;8.098;2024-02-28T02:53:03;0.20;1.00
9790;DHT22;4934;50.852;8.098;2024-02-28T02:55:29;0.20;1.00
9790;DHT22;4934;50.852;8.098;2024-02-28T02:57:55;0.20;8.40
9790;DHT22;4934;50.852;8.098;2024-02-28T03:00:21;0.30;84.40
9790;DHT22;4934;50.852;8.098;2024-02-28T03:02:47;0.30;90.90
9790;DHT22;4934;50.852;8.098;2024-02-28T03:05:13;0.40;72.90
9790;DHT22;4934;50.852;8.098;2024-02-28T03:07:38;0.30;34.50
9790;DHT22;4934;50.852;8.098;2024-02-28T03:10:05;0.30;94.30
9790;DHT22;4934;50.852;8.098;2024-02-28T03:12:30;0.30;99.90
9790;DHT22;4934;50.852;8.098;2024-02-28T03:14:56;0.40;99.90
9790;DHT22;4934;50.852;8.098;2024-02-28T03:17:22;0.40;99.90
9790;DHT22;4934;50.852;8.098;2024-02-28T03:19:47;0.40;99.90
9790;DHT22;4934;50.852;8.098;2024-02-28T03:22:13;0.50;99.90
9790;DHT22;4934;50.852;8.098;2024-02-28T03:24:39;0.50;99.90
9790;DHT22;4934;50.852;8.098;2024-02-28T03:27:05;0.50;99.90
9790;DHT22;4934;50.852;8.098;2024-02-28T03:29:30;0.60;99.90
9790;DHT22;4934;50.852;8.098;2024-02-28T03:31:57;0.70;99.90
9790;DHT22;4934;50.852;8.098;2024-02-28T03:34:23;0.70;99.90
9790;DHT22;4934;50.852;8.098;2024-02-28T03:36:49;0.60;99.90
9790;DHT22;4934;50.852;8.098;2024-02-28T03:39:14;0.60;99.90
9790;DHT22;4934;50.852;8.098;2024-02-28T03:41:40;0.70;99.90
9790;DHT22;4934;50.852;8.098;2024-02-28T03:44:05;0.70;99.90
9790;DHT22;4934;50.852;8.098;2024-02-28T03:46:31;0.70;99.90
9790;DHT22;4934;50.852;8.098;2024-02-28T03:48:56;0.70;99.90
9790;DHT22;4934;50.852;8.098;2024-02-28T03:51:22;0.70;99.90
9790;DHT22;4934;50.852;8.098;2024-02-28T03:53:48;0.80;99.90
9790;DHT22;4934;50.852;8.098;2024-02-28T03:56:21;0.80;99.90
9790;DHT22;4934;50.852;8.098;2024-02-28T03:58:46;0.70;99.90
9790;DHT22;4934;50.852;8.098;2024-02-28T04:01:12;0.70;99.90
9790;DHT22;4934;50.852;8.098;2024-02-28T04:03:38;0.70;99.90
9790;DHT22;4934;50.852;8.098;2024-02-28T04:06:04;0.80;99.90
9790;DHT22;4934;50.852;8.098;2024-02-28T04:08:29;0.80;99.90
9790;DHT22;4934;50.852;8.098;2024-02-28T04:10:55;0.90;99.90
9790;DHT22;4934;50.852;8.098;2024-02-28T04:13:21;0.90;99.90
9790;DHT22;4934;50.852;8.098;2024-02-28T04:15:46;0.90;99.90
9790;DHT22;4934;50.852;8.098;2024-02-28T04:18:12;0.90;99.90
9790;DHT22;4934;50.852;8.098;2024-02-28T04:20:37;0.90;99.90
9790;DHT22;4934;50.852;8.098;2024-02-28T04:23:04;0.80;99.90
9790;DHT22;4934;50.852;8.098;2024-02-28T04:25:29;0.80;99.90
9790;DHT22;4934;50.852;8.098;2024-02-28T04:27:55;0.90;99.90
9790;DHT22;4934;50.852;8.098;2024-02-28T04:30:22;0.90;99.90
9790;DHT22;4934;50.852;8.098;2024-02-28T04:32:48;0.80;99.90
9790;DHT22;4934;50.852;8.098;2024-02-28T04:35:13;0.90;99.90
9790;DHT22;4934;50.852;8.098;2024-02-28T04:37:44;0.80;99.90
9790;DHT22;4934;50.852;8.098;2024-02-28T04:40:10;0.80;99.90
9790;DHT22;4934;50.852;8.098;2024-02-28T04:42:36;0.90;99.90
9790;DHT22;4934;50.852;8.098;2024-02-28T04:45:01;0.90;99.90
9790;DHT22;4934;50.852;8.098;2024-02-28T04:47:28;0.80;99.90
9790;DHT22;4934;50.852;8.098;2024-02-28T04:49:53;0.80;99.90
9790;DHT22;4934;50.852;8.098;2024-02-28T04:52:19;0.90;99.90
9790;DHT22;4934;50.852;8.098;2024-02-28T04:54:44;0.80;99.90
9790;DHT22;4934;50.852;8.098;2024-02-28T04:57:10;0.80;99.90
9790;DHT22;4934;50.852;8.098;2024-02-28T04:59:36;0.90;99.90
9790;DHT22;4934;50.852;8.098;2024-02-28T05:02:01;0.90;99.90
9790;DHT22;4934;50.852;8.098;2024-02-28T05:04:27;0.90;99.90
9790;DHT22;4934;50.852;8.098;2024-02-28T05:06:52;0.90;99.90
9790;DHT22;4934;50.852;8.098;2024-02-28T05:09:18;1.00;99.90
9790;DHT22;4934;50.852;8.098;2024-02-28T05:11:44;0.90;99.90
9790;DHT22;4934;50.852;8.098;2024-02-28T05:14:10;0.90;99.90
9790;DHT22;4934;50.852;8.098;2024-02-28T05:16:36;0.80;99.90
9790;DHT22;4934;50.852;8.098;2024-02-28T05:19:02;0.80;99.90
9790;DHT22;4934;50.852;8.098;2024-02-28T05:21:29;0.80;99.90
9790;DHT22;4934;50.852;8.098;2024-02-28T05:23:55;0.80;99.90
9790;DHT22;4934;50.852;8.098;2024-02-28T05:26:21;0.80;99.90
9790;DHT22;4934;50.852;8.098;2024-02-28T05:28:46;0.70;99.90
9790;DHT22;4934;50.852;8.098;2024-02-28T05:31:23;0.80;1.00
9790;DHT22;4934;50.852;8.098;2024-02-28T05:33:53;0.70;1.00
9790;DHT22;4934;50.852;8.098;2024-02-28T05:36:26;0.80;1.00
9790;DHT22;4934;50.852;8.098;2024-02-28T05:38:54;0.80;1.00
9790;DHT22;4934;50.852;8.098;2024-02-28T05:41:20;0.70;1.00
9790;DHT22;4934;50.852;8.098;2024-02-28T05:43:47;0.70;1.00
9790;DHT22;4934;50.852;8.098;2024-02-28T05:46:13;0.80;1.00
9790;DHT22;4934;50.852;8.098;2024-02-28T05:48:40;0.80;1.00
9790;DHT22;4934;50.852;8.098;2024-02-28T05:51:06;0.80;1.00
9790;DHT22;4934;50.852;8.098;2024-02-28T05:53:32;0.80;1.00
9790;DHT22;4934;50.852;8.098;2024-02-28T05:56:01;0.80;1.00
9790;DHT22;4934;50.852;8.098;2024-02-28T05:58:27;0.70;1.00
9790;DHT22;4934;50.852;8.098;2024-02-28T06:00:53;0.70;1.00
9790;DHT22;4934;50.852;8.098;2024-02-28T06:03:19;0.80;1.00
9790;DHT22;4934;50.852;8.098;2024-02-28T06:05:44;0.70;1.00
9790;DHT22;4934;50.852;8.098;2024-02-28T06:08:10;0.80;1.00
9790;DHT22;4934;50.852;8.098;2024-02-28T06:10:36;0.80;1.00
9790;DHT22;4934;50.852;8.098;2024-02-28T06:13:02;0.90;1.00
9790;DHT22;4934;50.852;8.098;2024-02-28T06:15:28;0.90;1.00
9790;DHT22;4934;50.852;8.098;2024-02-28T06:17:58;0.90;1.00
9790;DHT22;4934;50.852;8.098;2024-02-28T06:20:26;0.80;1.00
9790;DHT22;4934;50.852;8.098;2024-02-28T06:22:52;0.90;1.00
9790;DHT22;4934;50.852;8.098;2024-02-28T06:25:17;0.80;1.00
9790;DHT22;4934;50.852;8.098;2024-02-28T06:27:45;0.80;1.00
9790;DHT22;4934;50.852;8.098;2024-02-28T06:30:11;0.90;1.00
9790;DHT22;4934;50.852;8.098;2024-02-28T06:32:40;0.90;1.00
9790;DHT22;4934;50.852;8.098;2024-02-28T06:35:07;0.80;1.00
9790;DHT22;4934;50.852;8.098;2024-02-28T06:37:33;0.90;1.00
9790;DHT22;4934;50.852;8.098;2024-02-28T06:39:59;0.90;1.00
9790;DHT22;4934;50.852;8.098;2024-02-28T06:42:24;0.90;1.00
9790;DHT22;4934;50.852;8.098;2024-02-28T06:44:50;0.90;1.00
9790;DHT22;4934;50.852;8.098;2024-02-28T06:47:16;1.00;1.00
9790;DHT22;4934;50.852;8.098;2024-02-28T06:49:41;1.00;1.00
9790;DHT22;4934;50.852;8.098;2024-02-28T06:52:07;1.00;1.00
9790;DHT22;4934;50.852;8.098;2024-02-28T06:54:32;0.80;99.90
9790;DHT22;4934;50.852;8.098;2024-02-28T06:56:58;0.70;1.00
9790;DHT22;4934;50.852;8.098;2024-02-28T06:59:24;0.70;1.00
9790;DHT22;4934;50.852;8.098;2024-02-28T07:01:49;0.80;1.00
9790;DHT22;4934;50.852;8.098;2024-02-28T07:04:15;0.70;1.00
9790;DHT22;4934;50.852;8.098;2024-02-28T07:06:40;0.60;1.00
9790;DHT22;4934;50.852;8.098;2024-02-28T07:09:09;0.80;1.00
9790;DHT22;4934;50.852;8.098;2024-02-28T07:11:35;0.80;1.00
9790;DHT22;4934;50.852;8.098;2024-02-28T07:14:00;0.90;1.00
9790;DHT22;4934;50.852;8.098;2024-02-28T07:16:29;0.90;1.00
9790;DHT22;4934;50.852;8.098;2024-02-28T07:18:55;1.00;1.00
9790;DHT22;4934;50.852;8.098;2024-02-28T07:21:21;1.00;1.00
9790;DHT22;4934;50.852;8.098;2024-02-28T07:23:46;1.10;1.00
9790;DHT22;4934;50.852;8.098;2024-02-28T07:26:15;0.90;99.90
9790;DHT22;4934;50.852;8.098;2024-02-28T07:28:41;0.80;99.90
9790;DHT22;4934;50.852;8.098;2024-02-28T07:31:06;0.70;1.00
9790;DHT22;4934;50.852;8.098;2024-02-28T07:33:32;0.70;1.00
9790;DHT22;4934;50.852;8.098;2024-02-28T07:35:58;0.70;1.00
9790;DHT22;4934;50.852;8.098;2024-02-28T07:38:27;0.60;1.00
9790;DHT22;4934;50.852;8.098;2024-02-28T07:40:53;0.70;1.00
9790;DHT22;4934;50.852;8.098;2024-02-28T07:43:18;0.70;1.00
9790;DHT22;4934;50.852;8.098;2024-02-28T07:45:44;0.70;1.00
9790;DHT22;4934;50.852;8.098;2024-02-28T07:48:10;0.80;1.00
9790;DHT22;4934;50.852;8.098;2024-02-28T07:50:35;0.80;1.00
9790;DHT22;4934;50.852;8.098;2024-02-28T07:53:01;0.80;1.00
9790;DHT22;4934;50.852;8.098;2024-02-28T07:55:26;0.80;1.00
9790;DHT22;4934;50.852;8.098;2024-02-28T07:57:53;0.80;1.00
9790;DHT22;4934;50.852;8.098;2024-02-28T08:00:18;0.60;1.00
9790;DHT22;4934;50.852;8.098;2024-02-28T08:02:45;0.60;1.00
9790;DHT22;4934;50.852;8.098;2024-02-28T08:05:11;0.80;1.00
9790;DHT22;4934;50.852;8.098;2024-02-28T08:07:36;0.90;1.00
9790;DHT22;4934;50.852;8.098;2024-02-28T08:10:03;1.00;1.00
9790;DHT22;4934;50.852;8.098;2024-02-28T08:12:31;0.90;1.00
9790;DHT22;4934;50.852;8.098;2024-02-28T08:14:56;0.80;1.00
9790;DHT22;4934;50.852;8.098;2024-02-28T08:17:22;0.90;1.00
9790;DHT22;4934;50.852;8.098;2024-02-28T08:19:47;0.80;1.00
9790;DHT22;4934;50.852;8.098;2024-02-28T08:22:13;0.90;1.00
9790;DHT22;4934;50.852;8.098;2024-02-28T08:24:38;0.90;1.00
9790;DHT22;4934;50.852;8.098;2024-02-28T08:27:05;0.80;1.00
9790;DHT22;4934;50.852;8.098;2024-02-28T08:29:30;0.80;1.00
9790;DHT22;4934;50.852;8.098;2024-02-28T08:31:58;1.00;1.00
9790;DHT22;4934;50.852;8.098;2024-02-28T08:34:23;1.00;1.00
9790;DHT22;4934;50.852;8.098;2024-02-28T08:36:49;1.00;1.00
9790;DHT22;4934;50.852;8.098;2024-02-28T08:39:14;1.10;1.00
9790;DHT22;4934;50.852;8.098;2024-02-28T08:41:40;1.20;1.00
9790;DHT22;4934;50.852;8.098;2024-02-28T08:44:05;1.30;1.00
9790;DHT22;4934;50.852;8.098;2024-02-28T08:46:31;1.30;99.90
9790;DHT22;4934;50.852;8.098;2024-02-28T08:48:57;1.40;99.90
9790;DHT22;4934;50.852;8.098;2024-02-28T08:51:22;1.30;99.90
9790;DHT22;4934;50.852;8.098;2024-02-28T08:53:48;1.40;99.90
9790;DHT22;4934;50.852;8.098;2024-02-28T08:56:14;1.50;99.90
9790;DHT22;4934;50.852;8.098;2024-02-28T08:58:39;1.60;99.90
9790;DHT22;4934;50.852;8.098;2024-02-28T09:01:05;1.80;99.90
9790;DHT22;4934;50.852;8.098;2024-02-28T09:03:31;1.90;99.90
9790;DHT22;4934;50.852;8.098;2024-02-28T09:05:57;2.00;99.90
9790;DHT22;4934;50.852;8.098;2024-02-28T09:08:23;2.20;99.90
9790;DHT22;4934;50.852;8.098;2024-02-28T09:10:48;2.40;99.90
9790;DHT22;4934;50.852;8.098;2024-02-28T09:13:14;2.40;99.90
9790;DHT22;4934;50.852;8.098;2024-02-28T09:15:39;2.50;99.90
9790;DHT22;4934;50.852;8.098;2024-02-28T09:18:07;2.60;99.90
9790;DHT22;4934;50.852;8.098;2024-02-28T09:20:32;2.50;76.10
9790;DHT22;4934;50.852;8.098;2024-02-28T09:22:58;2.50;99.90
9790;DHT22;4934;50.852;8.098;2024-02-28T09:25:23;2.60;99.90
9790;DHT22;4934;50.852;8.098;2024-02-28T09:27:49;2.70;99.90
9790;DHT22;4934;50.852;8.098;2024-02-28T09:30:15;2.80;99.90
9790;DHT22;4934;50.852;8.098;2024-02-28T09:32:42;2.70;1.00
9790;DHT22;4934;50.852;8.098;2024-02-28T09:35:08;2.70;1.00
9790;DHT22;4934;50.852;8.098;2024-02-28T09:37:36;2.60;99.90
9790;DHT22;4934;50.852;8.098;2024-02-28T09:40:02;2.60;99.90
9790;DHT22;4934;50.852;8.098;2024-02-28T09:42:28;2.70;1.00
9790;DHT22;4934;50.852;8.098;2024-02-28T09:44:54;2.70;1.00
9790;DHT22;4934;50.852;8.098;2024-02-28T09:47:20;2.60;99.90
9790;DHT22;4934;50.852;8.098;2024-02-28T09:49:49;2.70;99.90
9790;DHT22;4934;50.852;8.098;2024-02-28T09:52:15;2.70;99.90
9790;DHT22;4934;50.852;8.098;2024-02-28T09:54:41;2.30;99.90
9790;DHT22;4934;50.852;8.098;2024-02-28T09:57:11;2.00;99.90
9790;DHT22;4934;50.852;8.098;2024-02-28T09:59:38;2.10;99.90
9790;DHT22;4934;50.852;8.098;2024-02-28T10:02:04;2.20;99.90
9790;DHT22;4934;50.852;8.098;2024-02-28T10:04:32;2.10;47.50
9790;DHT22;4934;50.852;8.098;2024-02-28T10:07:10;1.90;1.00
9790;DHT22;4934;50.852;8.098;2024-02-28T10:09:38;1.80;1.00
9790;DHT22;4934;50.852;8.098;2024-02-28T10:12:03;1.80;1.00
9790;DHT22;4934;50.852;8.098;2024-02-28T10:14:29;2.10;1.00
9790;DHT22;4934;50.852;8.098;2024-02-28T10:16:55;2.20;99.90
9790;DHT22;4934;50.852;8.098;2024-02-28T10:19:21;2.20;1.00
9790;DHT22;4934;50.852;8.098;2024-02-28T10:21:47;2.30;1.00
9790;DHT22;4934;50.852;8.098;2024-02-28T10:24:12;2.30;99.90
9790;DHT22;4934;50.852;8.098;2024-02-28T10:26:45;2.30;34.10
9790;DHT22;4934;50.852;8.098;2024-02-28T10:29:11;2.40;99.90
9790;DHT22;4934;50.852;8.098;2024-02-28T10:31:37;2.40;99.90
9790;DHT22;4934;50.852;8.098;2024-02-28T10:34:04;2.10;1.00
9790;DHT22;4934;50.852;8.098;2024-02-28T10:36:31;2.30;99.90
9790;DHT22;4934;50.852;8.098;2024-02-28T10:38:58;2.80;99.90
9790;DHT22;4934;50.852;8.098;2024-02-28T10:41:26;3.00;99.90
9790;DHT22;4934;50.852;8.098;2024-02-28T10:43:51;3.30;11.00
9790;DHT22;4934;50.852;8.098;2024-02-28T10:46:20;3.50;1.00
9790;DHT22;4934;50.852;8.098;2024-02-28T10:48:46;3.50;1.00
9790;DHT22;4934;50.852;8.098;2024-02-28T10:51:20;3.10;1.00
9790;DHT22;4934;50.852;8.098;2024-02-28T10:53:50;2.80;99.90
9790;DHT22;4934;50.852;8.098;2024-02-28T10:56:20;3.00;1.00
9790;DHT22;4934;50.852;8.098;2024-02-28T10:58:52;3.20;8.10
9790;DHT22;4934;50.852;8.098;2024-02-28T11:01:20;3.20;1.00
9790;DHT22;4934;50.852;8.098;2024-02-28T11:03:48;3.30;1.00
9790;DHT22;4934;50.852;8.098;2024-02-28T11:06:21;3.40;1.00
9790;DHT22;4934;50.852;8.098;2024-02-28T11:08:48;3.50;99.90
9790;DHT22;4934;50.852;8.098;2024-02-28T11:11:14;3.60;99.90
9790;DHT22;4934;50.852;8.098;2024-02-28T11:13:51;3.30;1.00
9790;DHT22;4934;50.852;8.098;2024-02-28T11:16:34;3.60;1.00
9790;DHT22;4934;50.852;8.098;2024-02-28T11:19:02;3.80;1.00
9790;DHT22;4934;50.852;8.098;2024-02-28T11:21:29;3.80;99.90
9790;DHT22;4934;50.852;8.098;2024-02-28T11:23:59;4.00;61.00
9790;DHT22;4934;50.852;8.098;2024-02-28T11:26:25;4.10;1.00
9790;DHT22;4934;50.852;8.098;2024-02-28T11:28:53;4.00;99.90
9790;DHT22;4934;50.852;8.098;2024-02-28T11:31:20;3.70;1.00
9790;DHT22;4934;50.852;8.098;2024-02-28T11:33:45;3.50;99.90
9790;DHT22;4934;50.852;8.098;2024-02-28T11:36:11;3.50;1.00
9790;DHT22;4934;50.852;8.098;2024-02-28T11:38:39;3.70;1.00
9790;DHT22;4934;50.852;8.098;2024-02-28T11:41:06;4.20;99.90
9790;DHT22;4934;50.852;8.098;2024-02-28T11:43:32;4.30;99.90
9790;DHT22;4934;50.852;8.098;2024-02-28T11:46:00;4.20;99.90
9790;DHT22;4934;50.852;8.098;2024-02-28T11:48:26;4.40;99.90
9790;DHT22;4934;50.852;8.098;2024-02-28T11:50:54;4.40;54.20
9790;DHT22;4934;50.852;8.098;2024-02-28T11:53:19;4.60;1.00
9790;DHT22;4934;50.852;8.098;2024-02-28T11:55:46;4.50;1.00
9790;DHT22;4934;50.852;8.098;2024-02-28T11:58:13;4.70;99.90
9790;DHT22;4934;50.852;8.098;2024-02-28T12:00:56;5.10;99.90
9790;DHT22;4934;50.852;8.098;2024-02-28T12:03:23;5.40;24.20
9790;DHT22;4934;50.852;8.098;2024-02-28T12:05:50;5.40;99.90
9790;DHT22;4934;50.852;8.098;2024-02-28T12:08:17;5.60;99.90
9790;DHT22;4934;50.852;8.098;2024-02-28T12:10:44;5.30;99.90
9790;DHT22;4934;50.852;8.098;2024-02-28T12:13:10;5.50;99.90
9790;DHT22;4934;50.852;8.098;2024-02-28T12:15:39;5.40;34.60
9790;DHT22;4934;50.852;8.098;2024-02-28T12:18:09;5.30;99.90
9790;DHT22;4934;50.852;8.098;2024-02-28T12:20:38;4.70;99.90
9790;DHT22;4934;50.852;8.098;2024-02-28T12:23:04;4.90;99.90
9790;DHT22;4934;50.852;8.098;2024-02-28T12:25:30;5.00;99.90
9790;DHT22;4934;50.852;8.098;2024-02-28T12:27:56;5.00;99.90
9790;DHT22;4934;50.852;8.098;2024-02-28T12:30:21;4.60;99.90
9790;DHT22;4934;50.852;8.098;2024-02-28T12:32:47;4.90;99.90
9790;DHT22;4934;50.852;8.098;2024-02-28T12:35:13;5.00;99.90
9790;DHT22;4934;50.852;8.098;2024-02-28T12:37:39;5.00;99.90
9790;DHT22;4934;50.852;8.098;2024-02-28T12:40:05;5.30;99.90
9790;DHT22;4934;50.852;8.098;2024-02-28T12:42:32;5.40;99.90
9790;DHT22;4934;50.852;8.098;2024-02-28T12:44:57;5.50;99.90
9790;DHT22;4934;50.852;8.098;2024-02-28T12:47:23;5.70;95.10
9790;DHT22;4934;50.852;8.098;2024-02-28T12:49:48;5.90;2.50
9790;DHT22;4934;50.852;8.098;2024-02-28T12:52:14;6.00;99.90
9790;DHT22;4934;50.852;8.098;2024-02-28T12:54:39;6.20;7.50
9790;DHT22;4934;50.852;8.098;2024-02-28T12:57:05;6.30;1.00
9790;DHT22;4934;50.852;8.098;2024-02-28T12:59:32;6.40;1.00
9790;DHT22;4934;50.852;8.098;2024-02-28T13:01:58;6.40;1.00
9790;DHT22;4934;50.852;8.098;2024-02-28T13:04:24;6.30;1.00
9790;DHT22;4934;50.852;8.098;2024-02-28T13:06:51;6.30;1.00
9790;DHT22;4934;50.852;8.098;2024-02-28T13:09:18;6.20;1.00
9790;DHT22;4934;50.852;8.098;2024-02-28T13:11:44;6.50;1.00
9790;DHT22;4934;50.852;8.098;2024-02-28T13:14:09;6.50;1.00
9790;DHT22;4934;50.852;8.098;2024-02-28T13:16:36;6.50;1.00
9790;DHT22;4934;50.852;8.098;2024-02-28T13:19:01;6.60;1.00
9790;DHT22;4934;50.852;8.098;2024-02-28T13:21:27;6.70;1.00
9790;DHT22;4934;50.852;8.098;2024-02-28T13:23:53;6.80;1.00
9790;DHT22;4934;50.852;8.098;2024-02-28T13:26:19;6.60;99.90
9790;DHT22;4934;50.852;8.098;2024-02-28T13:28:46;6.60;99.90
9790;DHT22;4934;50.852;8.098;2024-02-28T13:31:11;6.80;1.00
9790;DHT22;4934;50.852;8.098;2024-02-28T13:33:38;7.00;99.90
9790;DHT22;4934;50.852;8.098;2024-02-28T13:36:04;6.90;99.90
9790;DHT22;4934;50.852;8.098;2024-02-28T13:38:31;6.90;99.90
9790;DHT22;4934;50.852;8.098;2024-02-28T13:40:57;7.10;99.90
9790;DHT22;4934;50.852;8.098;2024-02-28T13:43:23;7.30;99.90
9790;DHT22;4934;50.852;8.098;2024-02-28T13:45:51;7.40;99.90
9790;DHT22;4934;50.852;8.098;2024-02-28T13:48:19;7.20;99.90
9790;DHT22;4934;50.852;8.098;2024-02-28T13:50:47;7.20;99.90
9790;DHT22;4934;50.852;8.098;2024-02-28T13:53:13;7.50;99.90
9790;DHT22;4934;50.852;8.098;2024-02-28T13:55:40;7.60;99.90
9790;DHT22;4934;50.852;8.098;2024-02-28T13:58:08;7.80;99.90
9790;DHT22;4934;50.852;8.098;2024-02-28T14:00:35;8.00;99.90
9790;DHT22;4934;50.852;8.098;2024-02-28T14:03:01;8.20;99.90
9790;DHT22;4934;50.852;8.098;2024-02-28T14:05:28;8.40;99.90
9790;DHT22;4934;50.852;8.098;2024-02-28T14:07:54;8.40;99.90
9790;DHT22;4934;50.852;8.098;2024-02-28T14:10:19;8.40;99.90
9790;DHT22;4934;50.852;8.098;2024-02-28T14:12:45;8.40;99.90
9790;DHT22;4934;50.852;8.098;2024-02-28T14:15:11;8.20;99.90
9790;DHT22;4934;50.852;8.098;2024-02-28T14:17:37;8.20;99.90
9790;DHT22;4934;50.852;8.098;2024-02-28T14:20:04;8.10;99.90
9790;DHT22;4934;50.852;8.098;2024-02-28T14:22:30;7.90;99.90
9790;DHT22;4934;50.852;8.098;2024-02-28T14:24:56;8.00;99.90
9790;DHT22;4934;50.852;8.098;2024-02-28T14:27:21;8.10;99.90
9790;DHT22;4934;50.852;8.098;2024-02-28T14:29:47;8.20;99.90
9790;DHT22;4934;50.852;8.098;2024-02-28T14:32:15;8.20;99.90
9790;DHT22;4934;50.852;8.098;2024-02-28T14:34:40;8.10;99.90
9790;DHT22;4934;50.852;8.098;2024-02-28T14:37:07;8.00;99.90
9790;DHT22;4934;50.852;8.098;2024-02-28T14:39:33;8.10;99.90
9790;DHT22;4934;50.852;8.098;2024-02-28T14:41:59;8.40;99.90
9790;DHT22;4934;50.852;8.098;2024-02-28T14:44:25;8.40;99.90
9790;DHT22;4934;50.852;8.098;2024-02-28T14:46:50;8.50;99.90
9790;DHT22;4934;50.852;8.098;2024-02-28T14:49:17;8.50;99.90
9790;DHT22;4934;50.852;8.098;2024-02-28T14:51:43;8.60;99.90
9790;DHT22;4934;50.852;8.098;2024-02-28T14:54:14;8.70;99.90
9790;DHT22;4934;50.852;8.098;2024-02-28T14:56:39;8.60;99.90
9790;DHT22;4934;50.852;8.098;2024-02-28T14:59:05;8.70;99.90
9790;DHT22;4934;50.852;8.098;2024-02-28T15:01:31;8.80;84.40
9790;DHT22;4934;50.852;8.098;2024-02-28T15:03:56;8.90;50.80
9790;DHT22;4934;50.852;8.098;2024-02-28T15:06:22;8.60;28.00
9790;DHT22;4934;50.852;8.098;2024-02-28T15:08:47;8.70;30.00
9790;DHT22;4934;50.852;8.098;2024-02-28T15:11:14;8.50;4.60
9790;DHT22;4934;50.852;8.098;2024-02-28T15:13:40;8.60;1.00
9790;DHT22;4934;50.852;8.098;2024-02-28T15:16:07;8.60;1.00
9790;DHT22;4934;50.852;8.098;2024-02-28T15:18:32;8.70;3.10
9790;DHT22;4934;50.852;8.098;2024-02-28T15:20:59;8.90;1.00
9790;DHT22;4934;50.852;8.098;2024-02-28T15:23:24;8.70;1.00
9790;DHT22;4934;50.852;8.098;2024-02-28T15:25:50;8.80;1.00
9790;DHT22;4934;50.852;8.098;2024-02-28T15:28:20;8.80;1.00
9790;DHT22;4934;50.852;8.098;2024-02-28T15:30:46;8.50;1.00
9790;DHT22;4934;50.852;8.098;2024-02-28T15:33:13;8.30;1.00
9790;DHT22;4934;50.852;8.098;2024-02-28T15:35:39;8.30;1.00
9790;DHT22;4934;50.852;8.098;2024-02-28T15:38:04;8.30;1.00
9790;DHT22;4934;50.852;8.098;2024-02-28T15:40:30;8.40;1.00
9790;DHT22;4934;50.852;8.098;2024-02-28T15:42:56;8.30;1.00
9790;DHT22;4934;50.852;8.098;2024-02-28T15:45:23;8.20;1.00
9790;DHT22;4934;50.852;8.098;2024-02-28T15:47:49;8.00;1.00
9790;DHT22;4934;50.852;8.098;2024-02-28T15:50:16;7.90;1.00
9790;DHT22;4934;50.852;8.098;2024-02-28T15:52:43;7.90;1.00
9790;DHT22;4934;50.852;8.098;2024-02-28T15:55:10;8.00;1.00
9790;DHT22;4934;50.852;8.098;2024-02-28T15:57:36;7.80;1.00
9790;DHT22;4934;50.852;8.098;2024-02-28T16:00:02;7.90;1.00
9790;DHT22;4934;50.852;8.098;2024-02-28T16:02:28;7.90;1.00
9790;DHT22;4934;50.852;8.098;2024-02-28T16:04:54;8.10;1.00
9790;DHT22;4934;50.852;8.098;2024-02-28T16:07:19;8.10;1.00
9790;DHT22;4934;50.852;8.098;2024-02-28T16:09:45;8.00;1.00
9790;DHT22;4934;50.852;8.098;2024-02-28T16:12:10;7.80;1.00
9790;DHT22;4934;50.852;8.098;2024-02-28T16:14:36;7.80;1.00
9790;DHT22;4934;50.852;8.098;2024-02-28T16:17:02;7.80;1.00